Grissom ARB Airport
KGUS : now visible

Airfield :











YOU CAN JOIN US ON...

 
LOGIN :

Register | Disclaimer

   EN    FR    IT 

 









Legend :    VFR   Marginal VFR   IFR   Intensive IFR   Very Intensive IFR
Visi :
Ceiling :
>= 8 km
>= 3000ft
5 to 8 km
1000 to 3000 ft
1500m to 5 km
500 to 1000 ft
800 to 1500m
200 to 500 ft
< 800m
< 200 ft
Symbols :   Thunderstorms  Fog  Heavy snow  Heavy precipitations  Wind > 20 kt






- Airport Elevation : 812 ft


KGUS - Grissom ARB

CURRENT METAR :
  • 202156Z AUTO 22021G30KT 10SM BKN180 29/18 A2960 RMK AO2 PK WND 20032/26 SLP021 T02900181 CHINO RWY05 $

EXPIRED METARs :
  • 202056Z AUTO 22025G33KT 10SM SCT180 29/17 A2958 RMK AO2 PK WND 20035/21 SLP014 T02890174 55000 $
  • 201956Z AUTO 22020G32KT 10SM FEW180 FEW210 29/18 A2957 RMK AO2 PK WND 19034/08 SLP010 T02910182 $

TAF TAF KGUS
Valid from the 20 at 21:00 until the 22 at 03:00 UTC


202100Z 2021/2203 21025G35KT 9999 SCT150 520005 QNH2959INS
BECMG 2023/2024 21015G25KT 9999 BKN060 QNH2965INS
BECMG 2108/2109 33012KT 9000 -SHRA BKN035 BKN060 QNH2981INS
TEMPO 2110/2115 VRB25G35KT 4800 TSRA OVC020CB
BECMG 2114/2115 33012KT 9999 NSW BKN040 BKN060 QNH2985INS
BECMG 2118/2119 VRB06KT 9999 SCT040 BKN070 QNH2982INS TX29/2120Z TN20/2110Z LAST NO AMDS AFT 2103 NEXT 2113
KZAU FIR / North America



MET'MAP, your aeronautical weather chart ! - Copyright ORBIFLY December 2007 - Disclaimer

ORBIFLY MET'MAP TEAM :

Programming & Development : Alexandra Zaïnal
Original concept : Baudouin d'Aumeries
Technical & hardware support : Manuel Goepfert
Assistance : Marc-Olivier Méhu

Contact : metmap@orbifly.com




SOURCES & CREDITS :

   NOAA       Earth
Advisory